createdAt,value
2023-04-26T00:01:40.241Z,96164.00
2023-04-26T00:05:43.558Z,96167.00
2023-04-26T00:09:48.367Z,96164.00
2023-04-26T00:13:51.535Z,96163.00
2023-04-26T00:17:59.076Z,96169.00
2023-04-26T00:22:03.055Z,96169.00
2023-04-26T00:26:06.368Z,96174.00
2023-04-26T00:30:11.577Z,96152.00
2023-04-26T00:34:18.764Z,96145.00
2023-04-26T00:38:21.850Z,96157.00
2023-04-26T00:42:34.438Z,96164.00
2023-04-26T00:46:37.600Z,96162.00
2023-04-26T00:50:44.476Z,96161.00
2023-04-26T00:54:48.238Z,96158.00
2023-04-26T00:58:54.380Z,96158.00
2023-04-26T01:02:57.985Z,96159.00
2023-04-26T01:07:03.307Z,96157.00
2023-04-26T01:11:06.514Z,96172.00
2023-04-26T01:15:11.296Z,96170.00
2023-04-26T01:19:15.327Z,96167.00
2023-04-26T01:23:22.301Z,96183.00
2023-04-26T01:27:28.925Z,96165.00
2023-04-26T01:31:32.028Z,96168.00
2023-04-26T01:35:36.359Z,96166.00
2023-04-26T01:40:01.245Z,96156.00
2023-04-26T01:44:06.647Z,96166.00
2023-04-26T01:48:10.574Z,96169.00
2023-04-26T01:52:13.578Z,96173.00
2023-04-26T01:56:20.780Z,96169.00
2023-04-26T02:00:25.847Z,96173.00
2023-04-26T02:04:30.970Z,96169.00
2023-04-26T02:08:37.201Z,96178.00
2023-04-26T02:12:42.154Z,96183.00
2023-04-26T02:16:45.325Z,96171.00
2023-04-26T02:20:48.531Z,96179.00
2023-04-26T02:24:51.856Z,96181.00
2023-04-26T02:28:56.221Z,96182.00
2023-04-26T02:32:59.691Z,96180.00
2023-04-26T02:37:03.166Z,96175.00
2023-04-26T02:41:06.621Z,96173.00
2023-04-26T02:45:16.926Z,96178.00
2023-04-26T02:49:19.949Z,96162.00
2023-04-26T02:53:24.592Z,96174.00
2023-04-26T02:57:29.299Z,96172.00
2023-04-26T03:01:33.798Z,96169.00
2023-04-26T03:05:36.838Z,96169.00
2023-04-26T03:09:45.094Z,96179.00
2023-04-26T03:13:48.296Z,96197.00
2023-04-26T03:17:52.937Z,96188.00
2023-04-26T03:21:58.415Z,96178.00
2023-04-26T03:26:04.724Z,96186.00
2023-04-26T03:30:09.133Z,96182.00
2023-04-26T03:34:15.091Z,96186.00
2023-04-26T03:38:18.761Z,96180.00
2023-04-26T03:42:22.385Z,96189.00
2023-04-26T03:46:27.886Z,96204.00
2023-04-26T03:50:32.696Z,96200.00
2023-04-26T03:54:36.240Z,96201.00
2023-04-26T03:58:39.552Z,96205.00
2023-04-26T04:02:44.672Z,96202.00
2023-04-26T04:06:49.308Z,96207.00
2023-04-26T04:10:52.536Z,96207.00
2023-04-26T04:14:55.913Z,96211.00
2023-04-26T04:19:01.900Z,96212.00
2023-04-26T04:23:07.908Z,96218.00
2023-04-26T04:27:11.755Z,96233.00
2023-04-26T04:31:15.306Z,96227.00
2023-04-26T04:35:18.953Z,96239.00
2023-04-26T04:39:38.356Z,96235.00
2023-04-26T04:43:42.650Z,96236.00
2023-04-26T04:47:48.637Z,96241.00
2023-04-26T04:51:54.411Z,96248.00
2023-04-26T04:55:59.853Z,96252.00
2023-04-26T05:00:07.323Z,96249.00
2023-04-26T05:04:10.807Z,96254.00
2023-04-26T05:08:15.940Z,96244.00
2023-04-26T05:12:29.460Z,96253.00
2023-04-26T05:16:33.090Z,96254.00
2023-04-26T05:20:36.239Z,96260.00
2023-04-26T05:24:43.461Z,96256.00
2023-04-26T05:28:47.909Z,96270.00
2023-04-26T05:32:51.692Z,96270.00
2023-04-26T05:36:55.069Z,96267.00
2023-04-26T05:41:03.523Z,96265.00
2023-04-26T05:45:10.276Z,96273.00
2023-04-26T05:49:13.257Z,96262.00
2023-04-26T05:53:16.634Z,96272.00
2023-04-26T05:57:24.190Z,96280.00
2023-04-26T06:01:32.086Z,96283.00
2023-04-26T06:05:38.289Z,96279.00
2023-04-26T06:09:41.446Z,96279.00
2023-04-26T06:13:44.445Z,96291.00
2023-04-26T06:17:51.516Z,96292.00
2023-04-26T06:21:59.157Z,96298.00
2023-04-26T06:26:02.268Z,96299.00
2023-04-26T06:30:08.906Z,96304.00
2023-04-26T06:34:14.378Z,96311.00
2023-04-26T06:38:21.796Z,96320.00
2023-04-26T06:42:27.955Z,96323.00
2023-04-26T06:46:34.197Z,96329.00
2023-04-26T06:50:40.425Z,96328.00
2023-04-26T06:54:56.001Z,96325.00
2023-04-26T06:59:01.584Z,96327.00
2023-04-26T07:03:04.877Z,96331.00
2023-04-26T07:07:13.249Z,96337.00
2023-04-26T07:11:18.652Z,96331.00
2023-04-26T07:15:23.934Z,96330.00
2023-04-26T07:19:28.311Z,96339.00
2023-04-26T07:23:34.253Z,96339.00
2023-04-26T07:28:06.236Z,96334.00
2023-04-26T07:32:18.101Z,96341.00
2023-04-26T07:36:23.077Z,96333.00
2023-04-26T07:40:32.452Z,96337.00
2023-04-26T07:44:35.501Z,96340.00
2023-04-26T07:48:38.794Z,96342.00
2023-04-26T07:52:43.389Z,96336.00
2023-04-26T07:56:47.906Z,96344.00
2023-04-26T08:00:51.084Z,96332.00
2023-04-26T08:04:58.310Z,96332.00
2023-04-26T08:09:06.455Z,96333.00
2023-04-26T08:13:15.037Z,96343.00
2023-04-26T08:17:18.074Z,96341.00
2023-04-26T08:21:21.067Z,96334.00
2023-04-26T08:25:24.322Z,96332.00
2023-04-26T08:29:32.371Z,96339.00
2023-04-26T08:33:38.324Z,96337.00
2023-04-26T08:37:41.419Z,96344.00
2023-04-26T08:41:45.896Z,96344.00
2023-04-26T08:45:50.962Z,96336.00
2023-04-26T08:49:59.635Z,96346.00
2023-04-26T08:54:05.010Z,96350.00
2023-04-26T08:58:09.849Z,96344.00
2023-04-26T09:02:18.715Z,96348.00
2023-04-26T09:06:25.596Z,96342.00
2023-04-26T09:10:36.462Z,96345.00
2023-04-26T09:14:40.330Z,96342.00
2023-04-26T09:18:54.284Z,96343.00
2023-04-26T09:23:06.707Z,96343.00
2023-04-26T09:27:12.076Z,96327.00
2023-04-26T09:31:39.023Z,96340.00
2023-04-26T09:35:49.806Z,96347.00
2023-04-26T09:39:54.758Z,96346.00
2023-04-26T09:43:58.076Z,96344.00
2023-04-26T09:48:22.134Z,96348.00
2023-04-26T09:52:28.996Z,96341.00
2023-04-26T09:56:33.438Z,96341.00
2023-04-26T10:00:37.797Z,96345.00
2023-04-26T10:04:40.929Z,96350.00
2023-04-26T10:08:48.289Z,96339.00
2023-04-26T10:12:51.311Z,96346.00
2023-04-26T10:16:56.069Z,96338.00
2023-04-26T10:21:01.942Z,96324.00
2023-04-26T10:25:10.269Z,96327.00
2023-04-26T10:29:13.305Z,96324.00
2023-04-26T10:33:16.654Z,96327.00
2023-04-26T10:37:20.379Z,96331.00
2023-04-26T10:41:40.000Z,96320.00
2023-04-26T10:45:44.357Z,96316.00
2023-04-26T10:49:50.118Z,96306.00
2023-04-26T10:54:07.232Z,96306.00
2023-04-26T10:58:31.457Z,96323.00
2023-04-26T11:02:49.774Z,96326.00
2023-04-26T11:06:55.786Z,96305.00
2023-04-26T11:11:11.693Z,96303.00
2023-04-26T11:15:17.219Z,96305.00
2023-04-26T11:19:22.270Z,96315.00
2023-04-26T11:23:29.742Z,96316.00
2023-04-26T11:27:34.066Z,96302.00
2023-04-26T11:31:38.806Z,96302.00
2023-04-26T11:35:47.081Z,96296.00
2023-04-26T11:39:52.767Z,96314.00
2023-04-26T11:44:00.850Z,96302.00
2023-04-26T11:48:07.054Z,96294.00
2023-04-26T11:52:12.952Z,96299.00
2023-04-26T11:56:24.539Z,96300.00
2023-04-26T12:00:30.936Z,96304.00
2023-04-26T12:04:35.709Z,96302.00
2023-04-26T12:08:38.806Z,96309.00
2023-04-26T12:12:48.290Z,96300.00
2023-04-26T12:16:54.417Z,96305.00
2023-04-26T12:21:03.701Z,96295.00
2023-04-26T12:25:08.924Z,96303.00
2023-04-26T12:29:12.205Z,96300.00
2023-04-26T12:33:17.621Z,96296.00
2023-04-26T12:37:22.457Z,96282.00
2023-04-26T12:41:25.760Z,96282.00
2023-04-26T12:45:33.413Z,96274.00
2023-04-26T12:49:36.977Z,96279.00
2023-04-26T12:53:44.979Z,96270.00
2023-04-26T12:57:48.309Z,96280.00
2023-04-26T13:01:54.286Z,96271.00
2023-04-26T13:05:59.065Z,96264.00
2023-04-26T13:10:04.668Z,96275.00
2023-04-26T13:14:10.679Z,96269.00
2023-04-26T13:18:16.052Z,96272.00
2023-04-26T13:22:19.912Z,96276.00
2023-04-26T13:26:27.674Z,96276.00
2023-04-26T13:30:33.165Z,96262.00
2023-04-26T13:34:36.780Z,96266.00
2023-04-26T13:38:42.608Z,96268.00
2023-04-26T13:42:47.915Z,96270.00
2023-04-26T13:46:51.146Z,96263.00
2023-04-26T13:50:56.324Z,96268.00
2023-04-26T13:55:01.036Z,96263.00
2023-04-26T13:59:08.703Z,96258.00
2023-04-26T14:03:11.884Z,96264.00
2023-04-26T14:07:14.959Z,96259.00
2023-04-26T14:11:19.926Z,96253.00
2023-04-26T14:15:24.805Z,96257.00
2023-04-26T14:19:33.215Z,96250.00
2023-04-26T14:23:43.796Z,96261.00
2023-04-26T14:27:47.065Z,96259.00
2023-04-26T14:31:51.698Z,96256.00
2023-04-26T14:35:55.127Z,96258.00
2023-04-26T14:40:00.821Z,96257.00
2023-04-26T14:44:06.026Z,96263.00
2023-04-26T14:48:10.996Z,96274.00
2023-04-26T14:52:20.038Z,96248.00
2023-04-26T14:56:23.845Z,96264.00
2023-04-26T15:00:26.947Z,96248.00
2023-04-26T15:04:31.554Z,96256.00
2023-04-26T15:08:34.845Z,96253.00
2023-04-26T15:12:38.058Z,96251.00
2023-04-26T15:16:41.107Z,96251.00
2023-04-26T15:20:49.631Z,96244.00
2023-04-26T15:24:52.816Z,96252.00
2023-04-26T15:28:56.351Z,96249.00
2023-04-26T15:33:03.515Z,96240.00
2023-04-26T15:37:09.932Z,96238.00
2023-04-26T15:41:13.286Z,96240.00
2023-04-26T15:45:16.747Z,96264.00
2023-04-26T15:49:20.024Z,96248.00
2023-04-26T15:53:24.553Z,96253.00
2023-04-26T15:57:27.603Z,96248.00
2023-04-26T16:01:30.714Z,96249.00
2023-04-26T16:05:33.865Z,96243.00
2023-04-26T16:09:41.100Z,96241.00
2023-04-26T16:13:44.644Z,96253.00
2023-04-26T16:17:47.798Z,96259.00
2023-04-26T16:21:55.396Z,96254.00
2023-04-26T16:26:00.237Z,96248.00
2023-04-26T16:30:04.621Z,96243.00
2023-04-26T16:34:10.091Z,96253.00
2023-04-26T16:38:18.477Z,96230.00
2023-04-26T16:42:23.074Z,96244.00
2023-04-26T16:46:27.135Z,96254.00
2023-04-26T16:50:31.452Z,96250.00
2023-04-26T16:54:34.534Z,96248.00
2023-04-26T16:58:39.436Z,96249.00
2023-04-26T17:02:45.501Z,96249.00
2023-04-26T17:06:48.655Z,96251.00
2023-04-26T17:10:51.937Z,96252.00
2023-04-26T17:14:57.369Z,96257.00
2023-04-26T17:19:04.145Z,96260.00
2023-04-26T17:23:08.635Z,96262.00
2023-04-26T17:27:11.734Z,96267.00
2023-04-26T17:31:17.212Z,96267.00
2023-04-26T17:35:20.345Z,96257.00
2023-04-26T17:39:23.895Z,96264.00
2023-04-26T17:43:28.868Z,96266.00
2023-04-26T17:47:37.329Z,96269.00
2023-04-26T17:51:40.582Z,96275.00
2023-04-26T17:55:43.702Z,96272.00
2023-04-26T17:59:51.315Z,96272.00
2023-04-26T18:03:58.881Z,96274.00
2023-04-26T18:08:04.900Z,96278.00
2023-04-26T18:12:08.237Z,96284.00
2023-04-26T18:16:12.601Z,96287.00
2023-04-26T18:20:17.298Z,96296.00
2023-04-26T18:24:21.181Z,96302.00
2023-04-26T18:28:26.781Z,96299.00
2023-04-26T18:32:31.439Z,96309.00
2023-04-26T18:36:36.093Z,96302.00
2023-04-26T18:40:44.512Z,96307.00
2023-04-26T18:44:47.716Z,96302.00
2023-04-26T18:48:51.279Z,96306.00
2023-04-26T18:52:55.993Z,96318.00
2023-04-26T18:57:03.316Z,96316.00
2023-04-26T19:01:06.704Z,96325.00
2023-04-26T19:05:12.042Z,96323.00
2023-04-26T19:09:17.974Z,96326.00
2023-04-26T19:13:21.549Z,96331.00
2023-04-26T19:17:25.605Z,96336.00
2023-04-26T19:21:31.561Z,96344.00
2023-04-26T19:25:38.761Z,96341.00
2023-04-26T19:29:46.312Z,96345.00
2023-04-26T19:33:54.844Z,96352.00
2023-04-26T19:38:01.951Z,96345.00
2023-04-26T19:42:06.629Z,96353.00
2023-04-26T19:46:15.044Z,96349.00
2023-04-26T19:50:18.318Z,96344.00
2023-04-26T19:54:21.335Z,96352.00
2023-04-26T19:58:28.616Z,96349.00
2023-04-26T20:02:34.027Z,96356.00
2023-04-26T20:06:37.145Z,96353.00
2023-04-26T20:10:41.752Z,96347.00
2023-04-26T20:14:46.651Z,96356.00
2023-04-26T20:18:53.239Z,96358.00
2023-04-26T20:22:56.332Z,96359.00
2023-04-26T20:26:59.334Z,96356.00
2023-04-26T20:31:04.060Z,96362.00
2023-04-26T20:35:08.428Z,96353.00
2023-04-26T20:39:14.395Z,96350.00
2023-04-26T20:43:17.659Z,96353.00
2023-04-26T20:47:24.868Z,96345.00
2023-04-26T20:51:31.438Z,96350.00
2023-04-26T20:55:42.855Z,96353.00
2023-04-26T20:59:46.346Z,96353.00
2023-04-26T21:03:51.191Z,96355.00
2023-04-26T21:07:54.390Z,96358.00
2023-04-26T21:11:57.497Z,96357.00
2023-04-26T21:16:02.347Z,96365.00
2023-04-26T21:20:08.328Z,96363.00
2023-04-26T21:24:13.113Z,96369.00
2023-04-26T21:28:19.371Z,96371.00
2023-04-26T21:32:22.385Z,96376.00
2023-04-26T21:36:37.312Z,96376.00
2023-04-26T21:40:42.516Z,96377.00
2023-04-26T21:44:46.793Z,96381.00
2023-04-26T21:48:49.804Z,96386.00
2023-04-26T21:52:55.657Z,96384.00
2023-04-26T21:56:58.913Z,96384.00
2023-04-26T22:01:08.577Z,96381.00
2023-04-26T22:05:11.755Z,96384.00
2023-04-26T22:09:15.890Z,96380.00
2023-04-26T22:13:20.954Z,96383.00
2023-04-26T22:17:23.859Z,96384.00
2023-04-26T22:21:28.437Z,96380.00
2023-04-26T22:25:33.816Z,96389.00
2023-04-26T22:29:36.606Z,96380.00
2023-04-26T22:33:43.574Z,96392.00
2023-04-26T22:37:49.622Z,96385.00
2023-04-26T22:41:53.979Z,96382.00
2023-04-26T22:45:56.781Z,96386.00
2023-04-26T22:50:05.036Z,96392.00
2023-04-26T22:54:09.647Z,96389.00
2023-04-26T22:58:18.362Z,96389.00
2023-04-26T23:02:23.765Z,96393.00
2023-04-26T23:06:27.024Z,96407.00
2023-04-26T23:10:29.818Z,96404.00
2023-04-26T23:14:35.109Z,96403.00
2023-04-26T23:18:38.442Z,96402.00
2023-04-26T23:22:44.476Z,96402.00
2023-04-26T23:26:52.301Z,96401.00
2023-04-26T23:30:56.510Z,96393.00
2023-04-26T23:34:59.798Z,96393.00
2023-04-26T23:39:02.618Z,96398.00
2023-04-26T23:43:06.330Z,96391.00
2023-04-26T23:47:13.459Z,96397.00
2023-04-26T23:51:16.285Z,96395.00
2023-04-26T23:55:21.051Z,96398.00
2023-04-26T23:59:24.216Z,96398.00
